Kalamunda Bicley, Western Australia

6:14 PM AWST on August 28, 2015 (GMT +0800)
Lesmurdie | | Change Station
CLOSE
Current Station
Personal Weather Station
Location: Lesmurdie, WESTERN AUSTRALIA
Elevation: 915 ft
Nearby Weather Stations

Elev 915 ft 31.99 °S, 116.06 °E | Updated 5 minutes ago

Scattered Clouds
Scattered Clouds
61.9 °F
Feels Like 61.9 °F
N
0.0
Wind Variable Wind from NW
Gusts 2.0 mph

Today
High -- | Low -- °F
--% Chance of Precip.
Yesterday
High -- | Low -- °F
Precip. -- in
6:38 AM 5:56 PM
Waxing Gibbous, 97% visible
Pressure 29.98 in
Visibility 6.2 miles
Clouds Scattered Clouds 2400 ft
Scattered Clouds 22000 ft
Dew Point 57 °F
Humidity 85%
Rainfall 0.07 in
Snow Depth Not available.
UV 0 out of 12
Pollen Not available.
Air Quality Not available.
Flu Activity Not available.
METAR YPPH 281000Z 26006KT 9999 SCT024 SCT220 18/14 Q1015 NOSIG
Pressure 29.98 in
Visibility 6.2 miles
Clouds Scattered Clouds 2400 ft
Scattered Clouds 22000 ft
Dew Point 57 °F
Humidity 85%
Rainfall 0.07 in
Snow Depth Not available.
UV 0 out of 12
Pollen Not available.
Air Quality Not available.
Flu Activity Not available.
METAR YPPH 281000Z 26006KT 9999 SCT024 SCT220 18/14 Q1015 NOSIG

10-Day Weather Forecast

×

Almanac

Astronomy

Aug. 28, 2015 Rise Set
Actual Time
Civil Twilight
Nautical Twilight
Astronomical Twilight
Moon
Length of Visible Light
Length of Day
Tomorrow will be .
, % of the Moon is Illuminated

Today's Extremes

Country Highs Country Lows

Community

WunderPhotos

Upload Photos

1,850,355 photos uploaded!

WunderBlogs® & News

Nearby

Air Quality

  Air Quality AQ Index Pollutant
Not available.

Snow Depth

Station Depth Elevation

Earthquake Activity

City Distance Mag. Time & Date
Minimum magnitude displayed is 2.5.

Coastal Water Temperatures

Place Temperature

Stations

Nearby Weather Stations

Station Location Temp. Windchill Dew Point Humidity Wind Precip. Elev Updated Type